Time;durP1;ratioP1;P1;durP2;ratioP2;P2;SDS_P1;SDS_P2;PMS_P1;PMS_P2;Temp;Humidity;BMP_temperature;BMP_pressure;BME280_temperature;BME280_humidity;BME280_pressure;Samples;Min_cycle;Max_cycle;Signal;HPM_P1;HPM_P2
2024/03/25 00:01:55;;;;;;;6.00;2.47;;;;;;;5.29;100.00;99797.00;5024507;28;20573;-73
2024/03/25 00:04:22;;;;;;;5.43;2.50;;;;;;;5.24;100.00;99788.72;5041274;28;20052;-73
2024/03/25 00:06:48;;;;;;;8.00;2.70;;;;;;;5.22;100.00;99788.19;4996541;28;20082;-73
2024/03/25 00:09:14;;;;;;;6.22;2.55;;;;;;;5.17;100.00;99787.34;5021525;28;20029;-73
2024/03/25 00:11:42;;;;;;;5.57;2.45;;;;;;;5.13;100.00;99773.31;5032912;28;20044;-73
2024/03/25 00:14:08;;;;;;;7.00;2.35;;;;;;;5.14;100.00;99775.78;5021846;28;20044;-73
2024/03/25 00:16:33;;;;;;;5.60;2.25;;;;;;;5.03;100.00;99765.88;5060483;28;20036;-73
2024/03/25 00:18:59;;;;;;;7.50;1.80;;;;;;;5.02;100.00;99767.00;5070085;28;20454;-73
2024/03/25 00:21:24;;;;;;;6.88;2.20;;;;;;;5.00;100.00;99763.69;5033597;28;20064;-73
2024/03/25 00:23:50;;;;;;;7.60;2.50;;;;;;;4.94;100.00;99759.28;5035068;28;20029;-73
2024/03/25 00:26:15;;;;;;;9.40;2.60;;;;;;;4.91;100.00;99759.84;5024808;28;20036;-73
2024/03/25 00:28:41;;;;;;;6.38;2.53;;;;;;;4.92;100.00;99758.72;5036583;28;20056;-73
2024/03/25 00:31:06;;;;;;;9.35;2.40;;;;;;;4.87;100.00;99755.97;5041494;28;20047;-74
2024/03/25 00:33:32;;;;;;;8.07;2.42;;;;;;;4.84;100.00;99745.53;5006582;28;20094;-73
2024/03/25 00:35:58;;;;;;;9.38;2.30;;;;;;;4.81;100.00;99744.13;5028579;28;20040;-73
2024/03/25 00:38:24;;;;;;;7.68;2.70;;;;;;;4.84;100.00;99740.00;5025753;28;20068;-73
2024/03/25 00:40:50;;;;;;;10.90;2.58;;;;;;;4.75;100.00;99733.41;5056914;28;20063;-73
2024/03/25 00:43:16;;;;;;;9.40;2.70;;;;;;;4.71;100.00;99733.16;5024325;28;20029;-73
2024/03/25 00:45:41;;;;;;;8.50;2.55;;;;;;;4.75;100.00;99730.66;5053193;28;20040;-73
2024/03/25 00:48:07;;;;;;;8.15;2.67;;;;;;;4.67;100.00;99721.84;5037797;28;20044;-73
2024/03/25 00:50:32;;;;;;;7.40;2.72;;;;;;;4.64;100.00;99710.59;5040375;28;20051;-73
2024/03/25 00:52:58;;;;;;;13.70;3.05;;;;;;;4.65;100.00;99712.22;5052347;28;20045;-73
2024/03/25 00:55:24;;;;;;;7.72;2.53;;;;;;;4.60;100.00;99699.31;5030375;28;20039;-73
2024/03/25 00:57:50;;;;;;;4.75;2.10;;;;;;;4.60;100.00;99695.75;5071532;28;20651;-73
2024/03/25 01:00:15;;;;;;;7.20;2.80;;;;;;;4.60;100.00;99691.06;5053822;28;20037;-74
2024/03/25 01:02:42;;;;;;;5.93;2.38;;;;;;;4.58;100.00;99682.25;5051610;28;20562;-73
2024/03/25 01:05:07;;;;;;;7.47;2.58;;;;;;;4.58;100.00;99665.75;5044893;28;20041;-73
2024/03/25 01:07:33;;;;;;;6.97;2.30;;;;;;;4.57;100.00;99650.38;5028337;28;20397;-73
2024/03/25 01:09:58;;;;;;;8.07;2.67;;;;;;;4.58;100.00;99648.44;5028396;28;20063;-73
2024/03/25 01:12:25;;;;;;;7.95;2.30;;;;;;;4.59;100.00;99650.88;5060725;28;20044;-73
2024/03/25 01:14:51;;;;;;;5.88;2.35;;;;;;;4.60;100.00;99649.81;5061482;28;20101;-73
2024/03/25 01:17:17;;;;;;;11.00;2.50;;;;;;;4.63;100.00;99643.75;5059915;28;20041;-73
2024/03/25 01:19:42;;;;;;;8.00;2.10;;;;;;;4.61;100.00;99645.94;5011993;28;20033;-73
2024/03/25 01:22:08;;;;;;;8.68;2.05;;;;;;;4.66;100.00;99632.19;5027831;28;20032;-73
2024/03/25 01:24:34;;;;;;;12.88;2.30;;;;;;;4.64;100.00;99633.56;5028241;28;20498;-73
2024/03/25 01:27:00;;;;;;;6.18;2.10;;;;;;;4.69;100.00;99633.56;5037184;28;20116;-73
2024/03/25 01:29:25;;;;;;;15.18;2.20;;;;;;;4.65;100.00;99630.56;5027195;28;20061;-73
2024/03/25 01:31:51;;;;;;;10.82;2.15;;;;;;;4.67;100.00;99616.50;5011454;28;20036;-73
2024/03/25 01:34:16;;;;;;;7.00;2.38;;;;;;;4.73;100.00;99618.16;5011319;28;20040;-74
2024/03/25 01:36:42;;;;;;;8.90;2.30;;;;;;;4.75;100.00;99615.13;5023948;28;20033;-73
2024/03/25 01:39:08;;;;;;;8.02;2.38;;;;;;;4.78;100.00;99604.41;5053196;28;20037;-73
2024/03/25 01:41:33;;;;;;;12.23;2.97;;;;;;;4.78;100.00;99606.31;5040621;28;20497;-73
2024/03/25 01:43:59;;;;;;;6.18;2.50;;;;;;;4.78;100.00;99603.56;5026019;28;20086;-73
2024/03/25 01:46:24;;;;;;;15.93;3.13;;;;;;;4.82;100.00;99593.66;5040728;28;20041;-73
2024/03/25 01:48:50;;;;;;;10.85;2.45;;;;;;;4.83;100.00;99598.06;5080903;28;20036;-73
2024/03/25 01:51:17;;;;;;;7.65;2.83;;;;;;;4.81;100.00;99595.59;5027115;28;20043;-73
2024/03/25 01:53:42;;;;;;;7.63;2.40;;;;;;;4.87;100.00;99593.63;5043831;28;20115;-73
2024/03/25 01:56:08;;;;;;;9.85;2.45;;;;;;;4.86;100.00;99595.56;5043568;28;20056;-73
2024/03/25 01:58:33;;;;;;;7.95;2.63;;;;;;;4.93;100.00;99589.78;5040551;28;20582;-73
2024/03/25 02:01:01;;;;;;;8.45;2.78;;;;;;;4.88;100.00;99578.81;5026739;28;20052;-73
2024/03/25 02:03:26;;;;;;;8.45;2.83;;;;;;;4.90;100.00;99571.91;5040952;28;20051;-73
2024/03/25 02:05:55;;;;;;;5.03;2.47;;;;;;;4.85;100.00;99569.19;5040302;28;20033;-73
2024/03/25 02:08:21;;;;;;;9.60;3.30;;;;;;;4.87;100.00;99555.94;5042380;28;20041;-73
2024/03/25 02:10:46;;;;;;;10.05;2.58;;;;;;;4.88;100.00;99556.78;5033320;28;20038;-73
2024/03/25 02:13:12;;;;;;;8.48;2.45;;;;;;;4.83;100.00;99552.13;5026748;28;20036;-73
2024/03/25 02:15:38;;;;;;;9.55;3.10;;;;;;;4.82;100.00;99546.88;5039899;28;20036;-73
2024/03/25 02:18:04;;;;;;;15.00;2.97;;;;;;;4.86;100.00;99542.47;5030599;28;20041;-73
2024/03/25 02:20:29;;;;;;;10.25;2.65;;;;;;;4.81;100.00;99539.75;5040048;28;20112;-73
2024/03/25 02:22:55;;;;;;;8.00;3.78;;;;;;;4.80;100.00;99529.84;5027133;28;20029;-73
2024/03/25 02:25:20;;;;;;;9.93;2.63;;;;;;;4.82;100.00;99524.88;5035574;28;20078;-73
2024/03/25 02:27:46;;;;;;;9.68;2.92;;;;;;;4.81;100.00;99521.31;5030987;28;20051;-73
2024/03/25 02:30:13;;;;;;;8.73;3.17;;;;;;;4.80;100.00;99516.91;5039991;28;20422;-73
2024/03/25 02:32:38;;;;;;;11.50;3.10;;;;;;;4.80;100.00;99507.84;5059687;28;20039;-73
2024/03/25 02:35:06;;;;;;;6.35;2.75;;;;;;;4.77;100.00;99505.66;5026775;28;20049;-73
2024/03/25 02:37:32;;;;;;;8.05;2.80;;;;;;;4.77;100.00;99511.97;5038882;28;20111;-73
2024/03/25 02:39:58;;;;;;;10.77;2.90;;;;;;;4.73;100.00;99507.31;5043011;28;20574;-73
2024/03/25 02:42:26;;;;;;;7.70;2.53;;;;;;;4.73;100.00;99499.88;5009969;28;20033;-73
2024/03/25 02:44:53;;;;;;;7.82;3.00;;;;;;;4.73;100.00;99499.06;5047997;28;20036;-73
2024/03/25 02:47:19;;;;;;;11.23;2.72;;;;;;;4.68;100.00;99489.72;5043157;28;20040;-73
2024/03/25 02:49:45;;;;;;;7.50;2.97;;;;;;;4.66;100.00;99486.44;5023091;28;20508;-73
2024/03/25 02:52:11;;;;;;;8.38;3.45;;;;;;;4.65;100.00;99481.19;5025815;28;20112;-73
2024/03/25 02:54:36;;;;;;;8.30;3.15;;;;;;;4.59;100.00;99482.31;5031964;28;20675;-73
2024/03/25 02:57:02;;;;;;;13.20;3.05;;;;;;;4.61;100.00;99472.69;5042737;28;20032;-73
2024/03/25 02:59:27;;;;;;;13.45;3.65;;;;;;;4.59;100.00;99468.56;5021344;28;20077;-73
2024/03/25 03:01:53;;;;;;;9.60;2.97;;;;;;;4.57;100.00;99471.63;5039286;28;22356;-73
2024/03/25 03:04:18;;;;;;;9.20;3.28;;;;;;;4.55;100.00;99473.00;5024708;28;20037;-73
2024/03/25 03:06:44;;;;;;;6.97;3.30;;;;;;;4.54;100.00;99461.19;5013639;28;20040;-73
2024/03/25 03:09:09;;;;;;;8.40;3.25;;;;;;;4.56;100.00;99456.19;5039131;28;20037;-73
2024/03/25 03:11:35;;;;;;;8.75;2.70;;;;;;;4.54;100.00;99450.19;5024927;28;20083;-73
2024/03/25 03:14:01;;;;;;;7.07;2.72;;;;;;;4.55;100.00;99449.06;5025478;28;20037;-73
2024/03/25 03:16:26;;;;;;;9.70;2.42;;;;;;;4.50;100.00;99440.81;5010772;28;20085;-73
2024/03/25 03:18:52;;;;;;;12.82;3.10;;;;;;;4.53;100.00;99433.94;5045132;28;20040;-73
2024/03/25 03:21:17;;;;;;;8.52;3.03;;;;;;;4.49;100.00;99430.94;5045854;28;20055;-73
2024/03/25 03:23:43;;;;;;;13.40;3.53;;;;;;;4.51;100.00;99428.72;5025522;28;20484;-73
2024/03/25 03:26:08;;;;;;;7.72;2.90;;;;;;;4.48;100.00;99413.63;5025755;28;20040;-73
2024/03/25 03:28:34;;;;;;;6.47;3.20;;;;;;;4.48;100.00;99401.78;5022443;28;20037;-73
2024/03/25 03:30:59;;;;;;;7.03;2.88;;;;;;;4.51;100.00;99401.22;5025701;28;20043;-73
2024/03/25 03:33:25;;;;;;;9.02;3.05;;;;;;;4.46;100.00;99395.78;5047440;28;20040;-73
2024/03/25 03:35:51;;;;;;;15.80;3.58;;;;;;;4.45;100.00;99389.41;5008842;28;20029;-73
2024/03/25 03:38:17;;;;;;;9.38;2.83;;;;;;;4.50;100.00;99379.53;5037691;28;20112;-73
2024/03/25 03:40:44;;;;;;;11.75;3.35;;;;;;;4.45;100.00;99378.41;5041789;28;20523;-73
2024/03/25 03:43:09;;;;;;;11.77;3.45;;;;;;;4.49;100.00;99373.22;5020040;28;20032;-73
2024/03/25 03:45:35;;;;;;;13.15;3.10;;;;;;;4.43;100.00;99357.81;5041876;28;20044;-73
2024/03/25 03:48:01;;;;;;;10.55;3.35;;;;;;;4.42;100.00;99361.69;5025665;28;20033;-73
2024/03/25 03:50:26;;;;;;;13.32;3.45;;;;;;;4.41;100.00;99351.78;5025621;28;20480;-73
2024/03/25 03:52:52;;;;;;;10.98;3.70;;;;;;;4.44;100.00;99346.53;5021998;28;20041;-73
2024/03/25 03:55:17;;;;;;;9.35;2.95;;;;;;;4.39;100.00;99343.00;5040335;28;20036;-73
2024/03/25 03:57:43;;;;;;;7.90;2.95;;;;;;;4.40;100.00;99341.88;5026694;28;20033;-73
2024/03/25 04:00:11;;;;;;;10.95;3.50;;;;;;;4.43;100.00;99344.06;5040395;28;20036;-74
2024/03/25 04:02:37;;;;;;;13.32;3.70;;;;;;;4.41;100.00;99343.53;5006468;28;20061;-73
2024/03/25 04:05:03;;;;;;;11.45;3.50;;;;;;;4.40;100.00;99328.13;5038294;28;20060;-73
2024/03/25 04:07:30;;;;;;;11.27;3.83;;;;;;;4.41;100.00;99321.56;5038050;28;20489;-73
2024/03/25 04:09:57;;;;;;;15.57;3.63;;;;;;;4.47;100.00;99314.91;5013581;28;20444;-73
2024/03/25 04:12:22;;;;;;;9.70;3.10;;;;;;;4.46;100.00;99313.28;5037423;28;20083;-73
2024/03/25 04:14:49;;;;;;;17.85;3.50;;;;;;;4.41;100.00;99316.06;5038054;28;20041;-73
2024/03/25 04:17:14;;;;;;;10.93;3.63;;;;;;;4.41;100.00;99316.06;5059114;28;20058;-73
2024/03/25 04:19:40;;;;;;;11.15;3.38;;;;;;;4.47;100.00;99309.41;5021379;28;20540;-73
2024/03/25 04:22:07;;;;;;;15.25;4.57;;;;;;;4.44;100.00;99310.00;5038042;28;20312;-73
2024/03/25 04:24:34;;;;;;;17.17;3.65;;;;;;;4.43;100.00;99314.69;5021685;28;20048;-73
2024/03/25 04:26:59;;;;;;;9.57;3.90;;;;;;;4.46;100.00;99310.53;5025873;28;20044;-73
2024/03/25 04:29:25;;;;;;;9.13;3.88;;;;;;;4.46;100.00;99288.53;5018041;28;20049;-73
2024/03/25 04:31:51;;;;;;;14.63;3.97;;;;;;;4.47;100.00;99287.44;5021333;28;20091;-73
2024/03/25 04:34:16;;;;;;;13.25;3.60;;;;;;;4.48;100.00;99305.56;5030383;28;20045;-73
2024/03/25 04:36:42;;;;;;;15.35;3.85;;;;;;;4.46;100.00;99291.28;5044655;28;20397;-73
2024/03/25 04:39:08;;;;;;;16.55;3.75;;;;;;;4.49;100.00;99285.22;5056903;28;20048;-73
2024/03/25 04:41:33;;;;;;;12.80;3.80;;;;;;;4.50;100.00;99278.59;5021984;28;20039;-73
2024/03/25 04:43:59;;;;;;;14.90;3.90;;;;;;;4.57;100.00;99278.28;5043222;28;20037;-73
2024/03/25 04:46:24;;;;;;;11.20;3.72;;;;;;;4.56;100.00;99271.16;5008640;28;20768;-73
2024/03/25 04:48:50;;;;;;;14.60;3.97;;;;;;;4.54;100.00;99270.59;5041924;28;20037;-73
2024/03/25 04:51:15;;;;;;;11.73;4.18;;;;;;;4.54;100.00;99271.44;5041738;28;20445;-73
2024/03/25 04:53:41;;;;;;;14.27;3.90;;;;;;;4.54;100.00;99271.44;5058619;28;20037;-73
2024/03/25 04:56:06;;;;;;;14.75;4.20;;;;;;;4.55;100.00;99267.59;5041587;28;20044;-73
2024/03/25 04:58:32;;;;;;;9.93;3.80;;;;;;;4.60;100.00;99262.06;5005397;28;20491;-73
2024/03/25 05:00:57;;;;;;;19.13;4.05;;;;;;;4.55;100.00;99253.84;5040949;28;20452;-73
2024/03/25 05:03:23;;;;;;;14.90;3.90;;;;;;;4.57;100.00;99248.03;5003856;28;20045;-73
2024/03/25 05:05:48;;;;;;;11.93;3.80;;;;;;;4.56;100.00;99243.66;5040490;28;20056;-73
2024/03/25 05:08:14;;;;;;;13.23;3.85;;;;;;;4.56;100.00;99247.22;5028158;28;20110;-73
2024/03/25 05:10:39;;;;;;;9.70;3.70;;;;;;;4.58;100.00;99239.50;5012061;28;20040;-73
2024/03/25 05:13:05;;;;;;;14.23;3.97;;;;;;;4.57;100.00;99237.03;5044189;28;20036;-73
2024/03/25 05:15:30;;;;;;;12.57;4.15;;;;;;;4.60;100.00;99223.56;5028151;28;20032;-73
2024/03/25 05:17:56;;;;;;;13.75;4.13;;;;;;;4.61;100.00;99222.44;5014678;28;20040;-73
2024/03/25 05:20:21;;;;;;;16.10;4.55;;;;;;;4.64;100.00;99223.78;5048953;28;20086;-73
2024/03/25 05:22:47;;;;;;;10.00;4.25;;;;;;;4.62;100.00;99223.25;5061133;28;20033;-73
2024/03/25 05:25:12;;;;;;;16.60;4.65;;;;;;;4.63;100.00;99228.47;5021795;28;20047;-73
2024/03/25 05:27:38;;;;;;;12.30;3.70;;;;;;;4.63;100.00;99233.16;5047701;28;20037;-73
2024/03/25 05:30:04;;;;;;;13.23;3.70;;;;;;;4.62;100.00;99232.31;5028266;28;20066;-73
2024/03/25 05:32:29;;;;;;;9.82;4.05;;;;;;;4.68;100.00;99228.44;5027725;28;20063;-73
2024/03/25 05:34:54;;;;;;;14.80;4.25;;;;;;;4.68;100.00;99222.94;5011374;28;20090;-73
2024/03/25 05:37:20;;;;;;;14.25;4.30;;;;;;;4.69;100.00;99212.75;5056487;28;20046;-73
2024/03/25 05:39:45;;;;;;;13.02;4.00;;;;;;;4.70;100.00;99223.47;5021086;28;20041;-73
2024/03/25 05:42:11;;;;;;;12.30;4.05;;;;;;;4.73;100.00;99222.06;5060587;28;20032;-73
2024/03/25 05:44:36;;;;;;;13.65;4.40;;;;;;;4.65;100.00;99212.53;5030978;28;20033;-73
2024/03/25 05:47:02;;;;;;;15.05;4.15;;;;;;;4.69;100.00;99207.25;5060707;28;20043;-73
2024/03/25 05:49:28;;;;;;;18.55;4.00;;;;;;;4.65;100.00;99204.28;5048798;28;20455;-73
2024/03/25 05:51:53;;;;;;;12.98;4.50;;;;;;;4.66;100.00;99202.34;5078314;28;20037;-73
2024/03/25 05:54:18;;;;;;;8.18;4.00;;;;;;;4.65;100.00;99197.94;5060299;28;20040;-73
2024/03/25 05:56:44;;;;;;;12.40;3.60;;;;;;;4.66;100.00;99202.34;5078183;28;20419;-73
2024/03/25 05:59:09;;;;;;;12.18;4.35;;;;;;;4.63;100.00;99194.66;5010929;28;20095;-73
2024/03/25 06:01:37;;;;;;;10.15;4.18;;;;;;;4.63;100.00;99187.22;5027007;28;20048;-73
2024/03/25 06:04:03;;;;;;;11.48;3.60;;;;;;;4.58;100.00;99187.28;5041997;28;20041;-73
2024/03/25 06:06:29;;;;;;;12.68;4.00;;;;;;;4.59;100.00;99182.59;5027290;28;20045;-73
2024/03/25 06:08:54;;;;;;;10.93;4.00;;;;;;;4.60;100.00;99176.81;5057104;28;20081;-73
2024/03/25 06:11:20;;;;;;;14.50;4.35;;;;;;;4.59;100.00;99179.84;5024645;28;20040;-73
2024/03/25 06:13:47;;;;;;;13.63;4.15;;;;;;;4.59;100.00;99186.16;5043162;28;20044;-73
2024/03/25 06:16:13;;;;;;;13.68;4.10;;;;;;;4.57;100.00;99179.28;5027074;28;20569;-73
2024/03/25 06:18:40;;;;;;;13.50;4.32;;;;;;;4.57;100.00;99163.63;5040501;28;20036;-73
2024/03/25 06:21:05;;;;;;;16.48;4.35;;;;;;;4.56;100.00;99166.66;5041684;28;20062;-73
2024/03/25 06:23:31;;;;;;;10.32;3.50;;;;;;;4.56;100.00;99159.22;5043504;28;20393;-74
2024/03/25 06:25:56;;;;;;;11.73;3.53;;;;;;;4.62;100.00;99149.81;5059751;28;20439;-73
2024/03/25 06:28:22;;;;;;;14.32;3.92;;;;;;;4.56;100.00;99148.22;5057566;28;20040;-73
2024/03/25 06:36:17;;;;;;;12.02;3.78;;;;;;;4.54;100.00;99125.72;5055572;28;20041;-73
2024/03/25 06:38:42;;;;;;;15.18;4.07;;;;;;;4.55;100.00;99124.59;5073079;28;20044;-73
2024/03/25 06:41:08;;;;;;;14.35;3.78;;;;;;;4.56;100.00;99119.91;5026539;28;20032;-73
2024/03/25 06:43:34;;;;;;;8.90;3.83;;;;;;;4.62;100.00;99107.75;5024770;28;20025;-73
2024/03/25 06:45:59;;;;;;;16.67;4.30;;;;;;;4.64;100.00;99111.06;5042746;28;20036;-73
2024/03/25 06:48:25;;;;;;;11.27;4.28;;;;;;;4.65;100.00;99098.94;5026403;28;20047;-73
2024/03/25 06:50:56;;;;;;;14.75;4.90;;;;;;;4.73;100.00;99094.75;5009999;28;20029;-73
2024/03/25 06:53:22;;;;;;;21.23;4.93;;;;;;;4.81;100.00;99091.34;5028993;28;20378;-73
2024/03/25 06:55:56;;;;;;;13.43;4.45;;;;;;;4.93;100.00;99091.78;5076956;28;20044;-73
2024/03/25 06:58:23;;;;;;;13.80;4.90;;;;;;;5.04;100.00;99093.34;5042951;28;20664;-74
2024/03/25 07:00:48;;;;;;;16.02;5.38;;;;;;;5.17;100.00;99079.97;5042403;28;20036;-74
2024/03/25 07:03:15;;;;;;;13.45;4.65;;;;;;;5.28;100.00;99071.28;5026003;28;20408;-73
2024/03/25 07:05:40;;;;;;;14.02;5.10;;;;;;;5.41;100.00;99069.75;5059092;28;20103;-73
2024/03/25 07:08:06;;;;;;;14.13;4.68;;;;;;;5.52;100.00;99064.94;5042338;28;20036;-73
2024/03/25 07:10:31;;;;;;;13.13;5.05;;;;;;;5.65;100.00;99060.63;5047897;28;20033;-73
2024/03/25 07:12:57;;;;;;;13.55;5.10;;;;;;;5.79;100.00;99053.25;5041717;28;20097;-73
2024/03/25 07:15:23;;;;;;;13.10;5.18;;;;;;;5.92;100.00;99057.22;5042125;28;20033;-73
2024/03/25 07:17:48;;;;;;;17.13;5.88;;;;;;;6.03;100.00;99054.03;5028543;28;20101;-74
2024/03/25 07:20:14;;;;;;;17.73;5.90;;;;;;;6.17;100.00;99045.81;5042207;28;20036;-75
2024/03/25 07:22:39;;;;;;;13.27;5.60;;;;;;;6.30;100.00;99049.75;5014643;28;20025;-73
2024/03/25 07:25:05;;;;;;;18.25;6.05;;;;;;;6.43;100.00;99046.19;5058552;28;20090;-73
2024/03/25 07:27:30;;;;;;;17.45;5.47;;;;;;;6.56;100.00;99043.78;5081324;28;20510;-73
2024/03/25 07:29:56;;;;;;;14.45;4.45;;;;;;;6.65;100.00;99039.19;5055193;28;20411;-73
2024/03/25 07:32:22;;;;;;;17.38;5.22;;;;;;;6.77;100.00;99044.22;5037063;28;20090;-73
2024/03/25 07:34:47;;;;;;;13.80;4.85;;;;;;;6.86;100.00;99039.66;5040870;28;20166;-73
2024/03/25 07:37:13;;;;;;;15.65;4.70;;;;;;;6.91;100.00;99037.59;5067999;28;20044;-73
2024/03/25 07:39:38;;;;;;;18.30;4.85;;;;;;;6.98;100.00;99039.13;5025202;28;20028;-73
2024/03/25 07:42:04;;;;;;;13.50;4.85;;;;;;;7.02;100.00;99045.66;5075879;28;20032;-73
2024/03/25 07:44:29;;;;;;;16.48;4.85;;;;;;;7.09;100.00;99035.03;5025244;28;20048;-73
2024/03/25 07:46:55;;;;;;;12.05;4.57;;;;;;;7.15;100.00;99020.81;5041565;28;20056;-73
2024/03/25 07:49:20;;;;;;;13.93;4.68;;;;;;;7.18;100.00;99013.88;5025323;28;20041;-73
2024/03/25 07:51:46;;;;;;;8.77;4.13;;;;;;;7.22;100.00;99005.81;5008592;28;20052;-73
2024/03/25 07:54:16;;;;;;;11.45;4.03;;;;;;;7.27;100.00;99006.53;5047682;28;20059;-73
2024/03/25 07:56:42;;;;;;;12.35;4.47;;;;;;;7.30;100.00;99005.91;5058707;28;20032;-73
2024/03/25 07:59:07;;;;;;;10.15;4.30;;;;;;;7.36;100.00;98999.13;5041365;28;20490;-73
2024/03/25 08:01:33;;;;;;;15.52;4.43;;;;;;;7.39;100.00;98998.50;5040909;28;20049;-73
2024/03/25 08:03:58;;;;;;;12.98;4.10;;;;;;;7.48;100.00;98998.59;5037083;28;20048;-73
2024/03/25 08:06:24;;;;;;;14.60;4.05;;;;;;;7.58;100.00;99003.09;5050253;28;20033;-73
2024/03/25 08:08:49;;;;;;;15.75;5.05;;;;;;;7.64;100.00;98993.53;5038983;28;20037;-73
2024/03/25 08:11:15;;;;;;;15.05;4.28;;;;;;;7.76;100.00;98990.22;5037560;28;20042;-73
2024/03/25 08:13:40;;;;;;;12.23;3.22;;;;;;;7.83;100.00;98985.91;5041407;28;20052;-73
2024/03/25 08:16:06;;;;;;;13.82;3.47;;;;;;;7.96;100.00;98992.50;5057865;28;20043;-73
2024/03/25 08:18:31;;;;;;;9.00;3.00;;;;;;;8.09;100.00;98978.94;5041332;28;20033;-73
2024/03/25 08:20:56;;;;;;;11.38;3.63;;;;;;;8.18;100.00;98979.78;5025134;28;20407;-73
2024/03/25 08:23:22;;;;;;;15.45;3.42;;;;;;;8.31;100.00;98978.09;5038902;28;20489;-73
2024/03/25 08:25:47;;;;;;;9.52;3.50;;;;;;;8.47;100.00;98980.19;5046785;28;20043;-73
2024/03/25 08:28:13;;;;;;;10.15;3.42;;;;;;;8.64;100.00;98962.84;5039852;28;20516;-73
2024/03/25 08:30:42;;;;;;;11.23;3.35;;;;;;;8.79;100.00;98961.59;5082391;28;20033;-73
2024/03/25 08:33:07;;;;;;;11.57;3.20;;;;;;;8.90;100.00;98960.16;5008624;28;20037;-73
2024/03/25 08:35:33;;;;;;;13.25;3.28;;;;;;;8.97;100.00;98956.94;5047675;28;20519;-73
2024/03/25 08:37:59;;;;;;;13.40;3.05;;;;;;;9.08;100.00;98947.19;5005035;28;20033;-73
2024/03/25 08:40:24;;;;;;;9.68;3.20;;;;;;;9.22;100.00;98933.22;5041466;28;20041;-73
2024/03/25 08:42:49;;;;;;;9.75;2.40;;;;;;;9.32;100.00;98945.94;5039655;28;20089;-73
2024/03/25 08:45:15;;;;;;;9.52;3.00;;;;;;;9.43;100.00;98927.84;5040262;28;20401;-73
2024/03/25 08:47:42;;;;;;;16.38;2.75;;;;;;;9.58;100.00;98941.25;5008295;28;20540;-73
2024/03/25 08:50:08;;;;;;;12.70;2.85;;;;;;;9.71;100.00;98944.16;5058207;28;20443;-73
2024/03/25 08:52:33;;;;;;;11.13;2.83;;;;;;;9.82;100.00;98943.50;5009319;28;20036;-73
2024/03/25 08:54:59;;;;;;;10.18;2.25;;;;;;;9.95;100.00;98938.94;5041023;28;20504;-73
2024/03/25 08:57:24;;;;;;;9.95;2.92;;;;;;;10.10;100.00;98931.25;5041619;28;20040;-73
2024/03/25 08:59:50;;;;;;;9.23;2.60;;;;;;;10.24;100.00;98918.78;5012016;28;20098;-73
2024/03/25 09:02:16;;;;;;;7.65;2.20;;;;;;;10.37;100.00;98922.56;5024300;28;20040;-73
2024/03/25 09:04:41;;;;;;;11.35;2.78;;;;;;;10.47;100.00;98922.19;5024720;28;20104;-73
2024/03/25 09:07:08;;;;;;;6.88;2.30;;;;;;;10.63;100.00;98904.97;5008119;28;20037;-74
2024/03/25 09:12:17;;;;;;;5.93;2.10;;;;;;;10.94;100.00;98890.75;5059952;28;20033;-73
2024/03/25 09:14:43;;;;;;;7.50;2.92;;;;;;;11.10;100.00;98894.59;5069334;28;20067;-73
2024/03/25 09:17:08;;;;;;;8.88;2.30;;;;;;;11.24;100.00;98885.19;5045795;28;20029;-73
2024/03/25 09:19:34;;;;;;;9.60;2.47;;;;;;;11.36;100.00;98880.50;5044621;28;20040;-73
2024/03/25 09:21:59;;;;;;;10.82;3.35;;;;;;;11.46;100.00;98875.69;5028100;28;20028;-73
2024/03/25 09:24:25;;;;;;;10.75;2.95;;;;;;;11.57;100.00;98879.69;5027782;28;20491;-73
2024/03/25 09:26:50;;;;;;;8.30;2.80;;;;;;;11.65;100.00;98876.03;5024309;28;20037;-73
2024/03/25 09:29:16;;;;;;;9.48;2.30;;;;;;;11.74;100.00;98871.19;5056836;28;20055;-73
2024/03/25 09:31:41;;;;;;;10.07;2.60;;;;;;;11.82;100.00;98869.50;5024660;28;20041;-73
2024/03/25 09:34:06;;;;;;;9.93;2.70;;;;;;;11.96;100.00;98870.03;5027722;28;20028;-73
2024/03/25 09:36:32;;;;;;;6.90;2.67;;;;;;;12.05;100.00;98867.94;5039842;28;20204;-73
2024/03/25 09:38:57;;;;;;;5.57;2.28;;;;;;;12.22;100.00;98850.25;5052707;28;20041;-73
2024/03/25 09:41:23;;;;;;;9.25;2.40;;;;;;;12.41;100.00;98854.47;5041390;28;20036;-73
2024/03/25 09:43:54;;;;;;;9.80;2.72;;;;;;;12.50;95.62;98858.75;5040541;28;20101;-73
2024/03/25 09:46:20;;;;;;;11.70;2.42;;;;;;;12.64;93.83;98847.25;5037553;28;20037;-73
2024/03/25 09:48:46;;;;;;;9.98;2.15;;;;;;;12.76;94.76;98846.47;5025822;28;20094;-73
2024/03/25 09:51:11;;;;;;;6.75;2.17;;;;;;;12.87;95.62;98821.72;5040504;28;20049;-73
2024/03/25 09:53:37;;;;;;;8.75;2.40;;;;;;;13.00;91.93;98820.53;5041880;28;20033;-73
2024/03/25 09:56:03;;;;;;;8.63;2.13;;;;;;;13.12;90.18;98825.25;5040129;28;20039;-73
2024/03/25 09:58:28;;;;;;;8.68;1.75;;;;;;;13.21;92.61;98808.44;5024898;28;20040;-73
2024/03/25 10:00:55;;;;;;;7.85;2.35;;;;;;;13.28;92.01;98817.00;5026144;28;20140;-74
2024/03/25 10:03:21;;;;;;;9.93;2.15;;;;;;;13.40;88.28;98803.06;5084475;28;20041;-73
2024/03/25 10:05:46;;;;;;;9.80;2.45;;;;;;;13.46;88.26;98796.03;5027461;28;20037;-73
2024/03/25 10:08:12;;;;;;;6.85;2.22;;;;;;;13.59;87.00;98789.22;5004996;28;20033;-73
2024/03/25 10:10:37;;;;;;;5.82;1.90;;;;;;;13.67;82.92;98795.00;5009417;28;20059;-73
2024/03/25 10:13:05;;;;;;;8.57;2.25;;;;;;;13.74;81.29;98784.06;5063904;28;20109;-74
2024/03/25 10:15:32;;;;;;;8.52;2.08;;;;;;;13.81;80.55;98787.03;5060060;28;20135;-73
2024/03/25 10:17:57;;;;;;;10.75;2.10;;;;;;;13.88;80.33;98762.13;5030087;28;20434;-74
2024/03/25 10:20:23;;;;;;;8.88;1.98;;;;;;;13.94;79.30;98771.84;5040163;28;20037;-73
2024/03/25 10:22:49;;;;;;;10.15;2.28;;;;;;;13.96;80.01;98760.34;5027087;28;20028;-73
2024/03/25 10:25:27;;;;;;;7.38;1.98;;;;;;;13.94;80.36;98760.69;5040300;28;20417;-73
2024/03/25 10:27:59;;;;;;;7.25;1.75;;;;;;;14.01;82.35;98757.25;5053135;28;20044;-73
2024/03/25 10:30:25;;;;;;;4.93;1.73;;;;;;;14.07;78.59;98751.06;5030346;28;20036;-73
2024/03/25 10:33:05;;;;;;;8.95;1.77;;;;;;;14.12;76.95;98743.56;5060058;28;20094;-73
2024/03/25 10:35:34;;;;;;;5.30;1.55;;;;;;;14.15;76.87;98746.47;5054036;28;20524;-73
2024/03/25 10:38:01;;;;;;;5.05;1.63;;;;;;;14.17;75.02;98734.94;5036427;28;20400;-73
2024/03/25 10:40:28;;;;;;;6.72;1.95;;;;;;;14.19;74.57;98735.38;5042511;28;20035;-74
2024/03/25 10:42:59;;;;;;;9.18;2.20;;;;;;;14.26;72.58;98725.19;5040730;28;20507;-73
2024/03/25 10:45:26;;;;;;;9.35;1.70;;;;;;;14.27;72.85;98717.63;5043534;28;20068;-73
2024/03/25 10:47:52;;;;;;;6.78;1.90;;;;;;;14.35;74.51;98719.41;5017513;28;20033;-74
2024/03/25 10:50:17;;;;;;;10.15;1.70;;;;;;;14.42;73.32;98718.78;5056529;28;20033;-74
2024/03/25 10:52:43;;;;;;;6.40;1.50;;;;;;;14.44;71.10;98699.69;5024336;28;20045;-73
2024/03/25 10:55:09;;;;;;;7.30;1.70;;;;;;;14.51;73.45;98694.22;5026354;28;20036;-73
2024/03/25 10:57:34;;;;;;;8.13;1.50;;;;;;;14.56;75.22;98682.00;5058383;28;20029;-73
2024/03/25 11:00:00;;;;;;;6.25;1.75;;;;;;;14.67;73.55;98674.66;5040629;28;20040;-73
2024/03/25 11:02:25;;;;;;;5.60;1.60;;;;;;;14.75;72.63;98671.66;5008067;28;20056;-73
2024/03/25 11:04:51;;;;;;;7.75;1.70;;;;;;;14.79;70.74;98662.53;5018677;28;20091;-73
2024/03/25 11:07:17;;;;;;;4.93;1.00;;;;;;;14.80;70.49;98659.38;5042295;28;20490;-73
2024/03/25 11:09:42;;;;;;;6.47;1.38;;;;;;;14.91;70.89;98646.44;5037019;28;20028;-73
2024/03/25 11:12:11;;;;;;;5.75;1.17;;;;;;;15.00;69.90;98646.22;5038999;28;20374;-73
2024/03/25 11:14:38;;;;;;;5.90;1.20;;;;;;;15.05;69.44;98634.75;5047608;28;20036;-73
2024/03/25 11:17:13;;;;;;;5.78;1.58;;;;;;;15.08;69.04;98622.00;5041954;28;20044;-73
2024/03/25 11:19:39;;;;;;;5.68;1.48;;;;;;;15.18;68.98;98624.19;5026845;28;20045;-73
2024/03/25 11:22:09;;;;;;;6.22;1.77;;;;;;;15.19;69.01;98612.63;5058966;28;20036;-73
2024/03/25 11:24:38;;;;;;;6.55;1.67;;;;;;;15.28;67.78;98611.59;5059243;28;20139;-73
2024/03/25 11:27:06;;;;;;;7.57;1.25;;;;;;;15.28;67.42;98608.81;5007532;28;20063;-72
2024/03/25 11:29:31;;;;;;;5.82;1.33;;;;;;;15.33;67.28;98595.31;5036786;28;20036;-73
2024/03/25 11:31:58;;;;;;;8.88;1.58;;;;;;;15.33;66.92;98597.31;5026732;28;20037;-73